Time;durP1;ratioP1;P1;durP2;ratioP2;P2;SDS_P1;SDS_P2;PMS_P1;PMS_P2;Temp;Humidity;BMP_temperature;BMP_pressure;BME280_temperature;BME280_humidity;BME280_pressure;Samples;Min_cycle;Max_cycle;Signal;HPM_P1;HPM_P2
2022/03/01 00:00:10;;;;;;;1.77;1.57;;;;;;;0.55;55.68;101732.36;1668484;83;20111;-74
2022/03/01 00:02:40;;;;;;;3.20;2.13;;;;;;;0.49;55.79;101728.78;1652603;85;21537;-75
2022/03/01 00:05:06;;;;;;;4.45;2.55;;;;;;;0.54;55.80;101730.65;1665295;85;21627;-75
2022/03/01 00:07:34;;;;;;;3.80;2.50;;;;;;;0.52;56.01;101722.50;1675301;85;21026;-74
2022/03/01 00:10:00;;;;;;;;;;;;;;;0.52;56.03;101728.59;1655196;85;21312;-74
2022/03/01 00:12:26;;;;;;;1.70;1.30;;;;;;;0.51;56.08;101731.29;1667838;85;20127;-74
2022/03/01 00:14:52;;;;;;;2.50;1.98;;;;;;;0.52;56.05;101722.02;1669991;84;21587;-73
2022/03/01 00:17:18;;;;;;;2.35;1.67;;;;;;;0.53;55.97;101722.42;1673979;84;21082;-73
2022/03/01 00:19:44;;;;;;;1.90;1.62;;;;;;;0.53;55.99;101718.48;1694663;84;21131;-73
2022/03/01 00:22:11;;;;;;;2.40;1.57;;;;;;;0.51;56.17;101729.53;1666778;84;21155;-73
2022/03/01 00:24:37;;;;;;;1.30;1.07;;;;;;;0.48;56.21;101715.75;1667091;85;21066;-73
2022/03/01 00:27:04;;;;;;;2.27;2.05;;;;;;;0.44;56.30;101716.39;1667232;85;21534;-74
2022/03/01 00:29:30;;;;;;;1.53;1.37;;;;;;;0.41;56.27;101712.63;1666942;85;21684;-72
2022/03/01 00:31:57;;;;;;;2.83;1.72;;;;;;;0.42;56.31;101712.17;1666863;85;21061;-73
2022/03/01 00:34:23;;;;;;;2.03;1.60;;;;;;;0.44;56.18;101709.00;1663906;84;21003;-74
2022/03/01 00:36:49;;;;;;;2.27;1.57;;;;;;;0.39;56.26;101710.55;1675455;84;21073;-73
2022/03/01 00:39:15;;;;;;;1.92;1.65;;;;;;;0.41;56.23;101706.06;1670875;84;21110;-73
2022/03/01 00:41:41;;;;;;;3.02;1.87;;;;;;;0.36;56.30;101708.13;1667068;84;21572;-73
2022/03/01 00:44:08;;;;;;;2.80;1.37;;;;;;;0.32;56.57;101706.14;1666513;84;21573;-74
2022/03/01 00:46:34;;;;;;;1.52;1.37;;;;;;;0.26;56.86;101715.66;1667256;85;21023;-74
2022/03/01 00:49:03;;;;;;;2.80;1.92;;;;;;;0.23;56.73;101708.42;1667172;85;21169;-72
2022/03/01 00:51:30;;;;;;;2.73;1.77;;;;;;;0.21;56.91;101712.91;1666172;85;21082;-72
2022/03/01 00:53:56;;;;;;;3.45;1.95;;;;;;;0.21;56.91;101710.30;1666909;85;21017;-73
2022/03/01 00:56:22;;;;;;;1.98;1.37;;;;;;;0.16;57.23;101704.85;1666780;85;21039;-73
2022/03/01 00:58:49;;;;;;;1.85;1.65;;;;;;;0.16;57.14;101714.03;1666598;85;21682;-73
2022/03/01 01:01:15;;;;;;;;;;;;;;;0.13;57.24;101708.11;1668864;85;21365;-73
2022/03/01 01:03:41;;;;;;;2.03;1.13;;;;;;;0.04;57.72;101713.42;1666802;85;20192;-73
2022/03/01 01:06:09;;;;;;;2.47;1.83;;;;;;;0.01;57.63;101709.66;1666671;85;21214;-73
2022/03/01 01:08:36;;;;;;;1.10;1.00;;;;;;;0.00;57.77;101710.61;1666794;85;21036;-72
2022/03/01 01:11:03;;;;;;;2.35;1.82;;;;;;;-0.04;57.85;101707.75;1666065;85;21058;-74
2022/03/01 01:13:31;;;;;;;1.90;1.60;;;;;;;-0.02;57.85;101708.51;1666708;85;21083;-73
2022/03/01 01:15:58;;;;;;;3.25;2.08;;;;;;;-0.04;57.96;101712.99;1666921;85;21043;-75
2022/03/01 01:18:25;;;;;;;2.00;1.60;;;;;;;-0.02;57.88;101709.38;1666774;85;21562;-73
2022/03/01 01:20:51;;;;;;;2.35;2.02;;;;;;;-0.05;58.09;101703.45;1666890;85;21054;-74
2022/03/01 01:23:20;;;;;;;2.80;2.03;;;;;;;-0.05;58.32;101701.67;1665422;85;21621;-73
2022/03/01 01:25:46;;;;;;;1.62;1.10;;;;;;;-0.11;58.55;101704.64;1667030;85;21628;-74
2022/03/01 01:28:12;;;;;;;3.42;1.60;;;;;;;-0.15;58.91;101707.06;1641182;86;21161;-73
2022/03/01 01:30:38;;;;;;;;;;;;;;;-0.18;58.99;101703.77;1669079;85;21059;-73
2022/03/01 01:33:04;;;;;;;1.60;1.17;;;;;;;-0.22;59.21;101699.16;1665981;85;20564;-74
2022/03/01 01:35:34;;;;;;;4.55;1.98;;;;;;;-0.25;59.58;101702.77;1665742;85;21082;-71
2022/03/01 01:38:01;;;;;;;3.80;1.40;;;;;;;-0.27;60.35;101699.86;1665725;85;21031;-72
2022/03/01 01:40:30;;;;;;;2.23;2.03;;;;;;;-0.22;60.08;101704.39;1665014;85;21072;-74
2022/03/01 01:42:58;;;;;;;1.77;1.57;;;;;;;-0.25;60.07;101709.31;1659611;85;21002;-75
2022/03/01 01:45:26;;;;;;;1.93;1.50;;;;;;;-0.21;60.28;101706.06;1679522;84;21104;-72
2022/03/01 01:47:54;;;;;;;3.33;2.03;;;;;;;-0.21;60.32;101703.00;1711962;82;20987;-74
2022/03/01 01:50:22;;;;;;;2.03;1.93;;;;;;;-0.18;60.47;101701.14;1709251;83;21066;-73
2022/03/01 01:52:51;;;;;;;2.57;1.77;;;;;;;-0.18;60.54;101701.14;1695078;82;21061;-75
2022/03/01 01:55:20;;;;;;;1.53;1.43;;;;;;;-0.12;60.80;101700.80;1708845;82;20995;-74
2022/03/01 01:57:50;;;;;;;3.47;1.80;;;;;;;-0.09;61.12;101698.01;1682357;84;21074;-74
2022/03/01 02:00:17;;;;;;;3.47;2.23;;;;;;;-0.05;61.04;101702.14;1681518;84;21083;-74
2022/03/01 02:02:45;;;;;;;3.03;2.43;;;;;;;-0.07;61.61;101706.62;1675457;84;21015;-75
2022/03/01 02:05:12;;;;;;;1.53;1.43;;;;;;;-0.06;61.87;101708.30;1669723;84;21038;-74
2022/03/01 02:07:45;;;;;;;2.33;2.03;;;;;;;-0.07;62.33;101707.94;1681083;84;21145;-74
2022/03/01 02:10:12;;;;;;;4.77;2.30;;;;;;;-0.05;62.55;101703.45;1682294;84;21118;-72
2022/03/01 02:12:38;;;;;;;3.52;2.37;;;;;;;-0.05;62.89;101704.77;1682936;84;21034;-73
2022/03/01 02:15:06;;;;;;;3.80;2.20;;;;;;;-0.07;63.27;101709.25;1670105;84;21185;-73
2022/03/01 02:17:37;;;;;;;2.97;2.13;;;;;;;-0.13;64.28;101699.09;1659056;84;22157;-74
2022/03/01 02:20:12;;;;;;;2.90;2.43;;;;;;;-0.16;64.67;101713.22;1683663;84;21098;-73
2022/03/01 02:22:38;;;;;;;2.97;2.70;;;;;;;-0.21;65.70;101700.38;1679291;84;21525;-73
2022/03/01 02:25:07;;;;;;;3.17;2.47;;;;;;;-0.27;66.94;101700.70;1655950;84;21581;-73
2022/03/01 02:27:33;;;;;;;4.27;2.63;;;;;;;-0.30;67.61;101707.44;1656545;84;21518;-73
2022/03/01 02:29:59;;;;;;;3.62;2.75;;;;;;;-0.31;67.90;101704.90;1670684;84;21112;-73
2022/03/01 02:32:26;;;;;;;3.52;2.77;;;;;;;-0.29;68.79;101693.39;1687340;84;21016;-73
2022/03/01 02:34:52;;;;;;;4.97;2.80;;;;;;;-0.31;69.36;101703.11;1683162;83;21057;-72
2022/03/01 02:37:18;;;;;;;2.92;2.25;;;;;;;-0.30;70.54;101702.20;1682670;84;21086;-73
2022/03/01 02:39:44;;;;;;;7.33;3.62;;;;;;;-0.33;71.22;101694.97;1682262;84;20991;-74
2022/03/01 02:42:11;;;;;;;3.20;2.45;;;;;;;-0.36;71.69;101692.51;1683159;84;21037;-75
2022/03/01 02:44:37;;;;;;;6.20;3.43;;;;;;;-0.40;72.33;101694.01;1686578;84;21017;-72
2022/03/01 02:47:04;;;;;;;3.95;2.80;;;;;;;-0.38;72.85;101692.58;1670568;84;20979;-73
2022/03/01 02:49:31;;;;;;;2.37;2.17;;;;;;;-0.45;74.76;101696.02;1681639;84;21470;-74
2022/03/01 02:51:57;;;;;;;3.20;2.90;;;;;;;-0.49;74.55;101696.25;1680049;84;21063;-73
2022/03/01 02:54:23;;;;;;;4.62;2.50;;;;;;;-0.56;75.32;101697.55;1682675;85;21573;-74
2022/03/01 02:56:49;;;;;;;4.78;2.75;;;;;;;-0.61;76.56;101699.92;1677337;84;21076;-71
2022/03/01 02:59:15;;;;;;;7.15;3.70;;;;;;;-0.66;76.98;101695.41;1683379;84;21102;-73
2022/03/01 03:01:42;;;;;;;3.62;2.42;;;;;;;-0.72;77.49;101693.58;1686229;83;21042;-73
2022/03/01 03:04:08;;;;;;;3.27;2.47;;;;;;;-0.72;77.40;101691.80;1680377;83;20995;-73
2022/03/01 03:06:35;;;;;;;4.80;3.25;;;;;;;-0.70;77.71;101684.70;1695362;83;21522;-74
2022/03/01 03:09:01;;;;;;;4.45;3.15;;;;;;;-0.68;77.40;101685.93;1693240;83;21071;-73
2022/03/01 03:11:28;;;;;;;3.80;2.97;;;;;;;-0.68;78.01;101683.31;1694451;83;21617;-72
2022/03/01 03:13:54;;;;;;;4.72;3.42;;;;;;;-0.69;78.08;101682.48;1694868;83;21054;-72
2022/03/01 03:16:21;;;;;;;5.30;2.30;;;;;;;-0.72;78.08;101683.94;1693416;83;21070;-73
2022/03/01 03:18:49;;;;;;;7.27;3.50;;;;;;;-0.77;78.72;101680.74;1681593;83;21038;-72
2022/03/01 03:21:15;;;;;;;3.47;2.35;;;;;;;-0.80;78.50;101686.12;1688611;83;21098;-73
2022/03/01 03:23:41;;;;;;;3.45;2.98;;;;;;;-0.80;78.96;101682.20;1684188;84;21084;-71
2022/03/01 03:26:08;;;;;;;6.05;3.87;;;;;;;-0.81;79.18;101677.44;1684070;84;21045;-74
2022/03/01 03:28:33;;;;;;;3.35;3.05;;;;;;;-0.74;78.92;101676.63;1683465;84;21583;-73
2022/03/01 03:31:00;;;;;;;10.23;3.62;;;;;;;-0.70;79.08;101678.15;1699104;84;21056;-71
2022/03/01 03:33:26;;;;;;;4.92;2.67;;;;;;;-0.65;78.57;101675.30;1682211;84;20966;-73
2022/03/01 03:35:54;;;;;;;4.85;2.35;;;;;;;-0.69;78.68;101673.78;1683482;84;21110;-74
2022/03/01 03:38:21;;;;;;;3.43;2.97;;;;;;;-0.67;78.58;101668.00;1683444;84;21033;-72
2022/03/01 03:40:47;;;;;;;4.58;3.02;;;;;;;-0.69;78.64;101667.23;1660392;85;21037;-73
2022/03/01 03:43:13;;;;;;;5.33;3.00;;;;;;;-0.65;78.79;101663.52;1683504;84;20982;-73
2022/03/01 03:45:40;;;;;;;;;;;;;;;-0.63;78.56;101666.42;1685787;84;20986;-72
2022/03/01 03:48:06;;;;;;;4.77;2.90;;;;;;;-0.68;78.85;101661.92;1683473;84;20159;-73
2022/03/01 03:50:32;;;;;;;5.83;3.33;;;;;;;-0.74;78.77;101659.61;1685001;84;21105;-73
2022/03/01 03:53:00;;;;;;;5.47;3.42;;;;;;;-0.76;79.02;101658.85;1703467;84;21065;-71
2022/03/01 03:55:28;;;;;;;3.10;2.80;;;;;;;-0.72;78.95;101665.61;1683334;84;21153;-72
2022/03/01 03:57:55;;;;;;;;;;;;;;;-0.73;78.91;101654.77;1686196;84;21078;-74
2022/03/01 04:00:23;;;;;;;4.13;3.50;;;;;;;-0.70;78.75;101658.98;1683061;84;20171;-73
2022/03/01 04:02:52;;;;;;;4.70;3.50;;;;;;;-0.76;78.95;101654.09;1683109;84;21054;-72
2022/03/01 04:05:20;;;;;;;5.90;3.50;;;;;;;-0.73;79.13;101651.31;1682155;84;21443;-73
2022/03/01 04:07:48;;;;;;;4.40;2.87;;;;;;;-0.72;78.95;101655.13;1683676;84;21098;-74
2022/03/01 04:10:16;;;;;;;3.20;2.67;;;;;;;-0.74;78.92;101651.76;1682328;84;21023;-74
2022/03/01 04:12:42;;;;;;;5.47;3.70;;;;;;;-0.75;79.61;101647.47;1683333;84;21050;-73
2022/03/01 04:15:10;;;;;;;5.85;4.03;;;;;;;-0.77;79.41;101648.02;1683676;84;21114;-72
2022/03/01 04:17:37;;;;;;;4.27;3.60;;;;;;;-0.78;79.82;101648.92;1682962;84;21065;-73
2022/03/01 04:20:05;;;;;;;6.25;4.53;;;;;;;-0.78;80.02;101643.69;1683171;84;21506;-74
2022/03/01 04:22:31;;;;;;;5.33;3.83;;;;;;;-0.75;79.96;101636.99;1682767;84;21023;-74
2022/03/01 04:24:58;;;;;;;4.75;3.52;;;;;;;-0.74;80.12;101639.97;1683144;84;21106;-74
2022/03/01 04:27:25;;;;;;;5.37;3.97;;;;;;;-0.76;80.35;101643.14;1683327;84;21062;-75
2022/03/01 04:29:52;;;;;;;2.90;2.33;;;;;;;-0.80;80.34;101641.15;1683663;84;21082;-73
2022/03/01 04:32:20;;;;;;;4.45;3.50;;;;;;;-0.86;80.93;101642.80;1683563;84;21142;-74
2022/03/01 04:34:46;;;;;;;7.03;4.73;;;;;;;-0.85;80.93;101639.70;1683593;84;21131;-73
2022/03/01 04:37:12;;;;;;;5.00;4.00;;;;;;;-0.90;80.98;101635.20;1683620;84;21069;-72
2022/03/01 04:39:39;;;;;;;5.33;3.83;;;;;;;-0.88;80.98;101630.26;1659822;84;21130;-73
2022/03/01 04:42:06;;;;;;;4.63;2.93;;;;;;;-0.92;81.25;101630.48;1668374;84;21540;-72
2022/03/01 04:44:34;;;;;;;5.15;4.65;;;;;;;-0.87;81.29;101627.17;1676878;84;21591;-72
2022/03/01 04:47:04;;;;;;;7.30;3.77;;;;;;;-0.86;81.28;101638.03;1652410;84;21043;-73
2022/03/01 04:49:33;;;;;;;4.40;4.00;;;;;;;-0.89;81.51;101635.09;1678850;84;21050;-73
2022/03/01 04:51:59;;;;;;;5.77;3.10;;;;;;;-0.91;81.80;101638.73;1667729;84;21075;-74
2022/03/01 04:54:25;;;;;;;5.28;3.60;;;;;;;-0.97;82.29;101641.69;1667730;84;21106;-74
2022/03/01 04:56:52;;;;;;;6.72;3.10;;;;;;;-0.96;82.04;101636.38;1642494;86;21517;-73
2022/03/01 04:59:18;;;;;;;4.25;3.45;;;;;;;-0.97;82.62;101645.14;1636634;86;21018;-73
2022/03/01 05:01:44;;;;;;;4.47;4.08;;;;;;;-0.93;82.30;101644.52;1663685;84;21045;-74
2022/03/01 05:04:10;;;;;;;5.08;3.50;;;;;;;-0.93;82.25;101644.05;1683712;84;21158;-74
2022/03/01 05:06:37;;;;;;;4.25;2.92;;;;;;;-0.90;82.25;101643.06;1682543;84;21167;-74
2022/03/01 05:09:03;;;;;;;5.55;3.00;;;;;;;-0.85;82.31;101643.19;1683392;84;21076;-73
2022/03/01 05:11:31;;;;;;;3.43;3.13;;;;;;;-0.81;82.11;101645.16;1682832;82;21320;-73
2022/03/01 05:13:57;;;;;;;6.25;4.20;;;;;;;-0.81;82.16;101648.64;1683509;84;21493;-73
2022/03/01 05:16:23;;;;;;;4.15;3.27;;;;;;;-0.80;82.06;101653.41;1682396;84;21227;-75
2022/03/01 05:18:49;;;;;;;4.20;3.30;;;;;;;-0.77;82.01;101653.69;1682272;84;21038;-73
2022/03/01 05:21:16;;;;;;;4.35;2.67;;;;;;;-0.70;81.80;101654.58;1682155;84;21010;-73
2022/03/01 05:23:42;;;;;;;3.75;3.30;;;;;;;-0.70;81.76;101653.28;1681898;84;21638;-74
2022/03/01 05:26:08;;;;;;;5.47;2.50;;;;;;;-0.62;81.51;101642.41;1664035;84;21093;-76
2022/03/01 05:28:35;;;;;;;4.07;2.23;;;;;;;-0.59;81.34;101654.01;1677538;84;21094;-73
2022/03/01 05:31:01;;;;;;;4.65;2.85;;;;;;;-0.56;80.79;101646.47;1681089;84;21128;-74
2022/03/01 05:33:30;;;;;;;4.13;3.10;;;;;;;-0.74;81.56;101649.61;1686125;84;21046;-73
2022/03/01 05:35:56;;;;;;;3.80;2.83;;;;;;;-0.72;81.31;101648.59;1692430;84;21552;-74
2022/03/01 05:38:22;;;;;;;4.60;2.80;;;;;;;-0.72;81.37;101652.52;1684552;84;21021;-73
2022/03/01 05:40:49;;;;;;;;;;;;;;;-0.71;81.42;101641.60;1697648;84;21065;-74
2022/03/01 05:43:15;;;;;;;3.97;3.23;;;;;;;-0.66;81.24;101644.35;1691721;83;20312;-74
2022/03/01 05:45:42;;;;;;;3.58;2.90;;;;;;;-0.69;81.38;101636.65;1668047;84;21083;-74
2022/03/01 05:48:08;;;;;;;;;;;;;;;-0.67;81.43;101633.95;1685993;84;21560;-73
2022/03/01 05:50:34;;;;;;;4.30;2.87;;;;;;;-0.67;81.33;101636.09;1684940;84;20158;-73
2022/03/01 05:53:00;;;;;;;4.22;3.60;;;;;;;-0.71;81.25;101629.34;1682531;84;21540;-75
2022/03/01 05:55:27;;;;;;;7.17;4.00;;;;;;;-0.70;81.62;101624.94;1677723;84;20987;-74
2022/03/01 05:57:53;;;;;;;4.45;3.60;;;;;;;-0.67;81.76;101625.63;1680958;84;21006;-74
2022/03/01 06:00:21;;;;;;;4.87;3.27;;;;;;;-0.65;81.39;101626.38;1682742;83;21060;-73
2022/03/01 06:02:50;;;;;;;4.37;2.73;;;;;;;-0.63;81.39;101625.00;1683887;84;21022;-73
2022/03/01 06:05:18;;;;;;;3.97;3.47;;;;;;;-0.65;81.53;101630.31;1676868;84;21146;-73
2022/03/01 06:07:45;;;;;;;5.30;3.70;;;;;;;-0.63;81.42;101625.00;1683503;85;21542;-75
2022/03/01 06:10:12;;;;;;;6.43;3.87;;;;;;;-0.65;81.51;101622.92;1683644;84;21092;-73
2022/03/01 06:12:39;;;;;;;3.87;3.07;;;;;;;-0.59;81.43;101619.48;1682754;84;21105;-73
2022/03/01 06:15:08;;;;;;;6.50;3.80;;;;;;;-0.55;81.41;101619.33;1683125;84;21068;-74
2022/03/01 06:17:37;;;;;;;7.17;3.57;;;;;;;-0.50;81.26;101625.17;1680003;84;21102;-74
2022/03/01 06:20:06;;;;;;;6.03;3.23;;;;;;;-0.53;81.13;101627.95;1679204;84;21066;-76
2022/03/01 06:22:32;;;;;;;4.27;2.97;;;;;;;-0.53;81.33;101621.40;1675924;84;21096;-74
2022/03/01 06:24:59;;;;;;;5.60;2.92;;;;;;;-0.50;81.56;101630.41;1683526;84;21225;-74
2022/03/01 06:27:25;;;;;;;;;;;;;;;-0.46;81.36;101638.47;1681684;84;21038;-71
2022/03/01 06:29:51;;;;;;;4.43;2.97;;;;;;;-0.51;81.25;101632.19;1683016;84;20143;-71
2022/03/01 06:32:18;;;;;;;6.03;3.12;;;;;;;-0.51;81.15;101631.33;1683848;82;20963;-74
2022/03/01 06:34:44;;;;;;;4.55;3.87;;;;;;;-0.52;81.49;101630.96;1684008;84;21013;-75
2022/03/01 06:37:13;;;;;;;5.03;2.75;;;;;;;-0.45;81.49;101625.77;1684253;84;21033;-73
2022/03/01 06:39:39;;;;;;;5.50;4.30;;;;;;;-0.39;81.27;101628.03;1684442;84;21026;-75
2022/03/01 06:42:06;;;;;;;3.80;2.90;;;;;;;-0.32;80.76;101634.63;1682793;84;21058;-74
2022/03/01 06:44:32;;;;;;;4.28;3.40;;;;;;;-0.34;80.61;101635.19;1683811;82;21263;-75
2022/03/01 06:46:59;;;;;;;4.63;3.47;;;;;;;-0.32;80.22;101616.73;1683162;84;21039;-74
2022/03/01 06:49:25;;;;;;;4.00;2.58;;;;;;;-0.26;80.47;101632.97;1681985;84;21557;-75
2022/03/01 06:51:51;;;;;;;3.80;3.40;;;;;;;-0.20;80.16;101638.33;1683889;84;21480;-73
2022/03/01 06:54:17;;;;;;;2.90;2.60;;;;;;;-0.25;80.10;101639.87;1683846;84;20990;-75
2022/03/01 06:56:43;;;;;;;6.15;3.65;;;;;;;-0.27;80.23;101636.50;1683449;84;21084;-74
2022/03/01 06:59:09;;;;;;;5.45;3.47;;;;;;;-0.32;80.49;101637.69;1683939;84;21025;-75
2022/03/01 07:01:36;;;;;;;4.53;3.55;;;;;;;-0.29;80.65;101638.37;1683628;84;21106;-73
2022/03/01 07:04:02;;;;;;;8.60;3.08;;;;;;;-0.31;80.68;101626.30;1677937;84;21104;-73
2022/03/01 07:06:28;;;;;;;4.00;3.20;;;;;;;-0.27;80.47;101637.81;1686135;84;21400;-73
2022/03/01 07:08:54;;;;;;;5.40;3.77;;;;;;;-0.25;80.32;101638.56;1700332;84;21094;-75
2022/03/01 07:11:22;;;;;;;5.00;3.12;;;;;;;-0.21;80.22;101639.24;1682843;84;21049;-73
2022/03/01 07:13:49;;;;;;;3.93;3.20;;;;;;;-0.18;79.90;101639.55;1675006;84;21051;-75
2022/03/01 07:16:16;;;;;;;5.93;4.27;;;;;;;-0.18;79.92;101635.62;1664993;84;21528;-74
2022/03/01 07:18:44;;;;;;;3.73;3.33;;;;;;;-0.16;79.81;101618.88;1683531;84;21037;-73
2022/03/01 07:21:12;;;;;;;4.17;2.50;;;;;;;-0.09;79.65;101628.08;1680675;84;21003;-73
2022/03/01 07:23:39;;;;;;;4.80;3.50;;;;;;;-0.09;79.53;101627.24;1681277;84;21537;-73
2022/03/01 07:26:05;;;;;;;3.73;3.40;;;;;;;-0.03;79.42;101625.09;1685841;84;21042;-75
2022/03/01 07:28:31;;;;;;;4.87;3.35;;;;;;;0.05;79.55;101623.81;1683132;84;21165;-72
2022/03/01 07:30:58;;;;;;;5.07;3.90;;;;;;;0.10;79.26;101613.44;1684480;84;21670;-73
2022/03/01 07:33:25;;;;;;;5.08;4.50;;;;;;;0.13;78.95;101613.27;1691438;83;21073;-74
2022/03/01 07:35:51;;;;;;;6.08;4.20;;;;;;;0.14;78.66;101620.19;1694862;83;21005;-75
2022/03/01 07:38:17;;;;;;;6.37;3.58;;;;;;;0.11;78.88;101621.66;1683853;84;20987;-75
2022/03/01 07:40:45;;;;;;;4.55;4.10;;;;;;;0.13;78.76;101621.59;1684056;84;21490;-74
2022/03/01 07:43:11;;;;;;;6.47;4.33;;;;;;;0.12;78.81;101620.75;1701461;84;20979;-74
2022/03/01 07:45:37;;;;;;;5.55;4.05;;;;;;;0.15;78.80;101625.83;1670999;84;21009;-75
2022/03/01 07:48:05;;;;;;;5.43;4.47;;;;;;;0.15;78.68;101632.38;1683452;84;21090;-72
2022/03/01 07:50:32;;;;;;;6.80;4.07;;;;;;;0.11;78.71;101632.16;1683556;84;21065;-73
2022/03/01 07:52:58;;;;;;;7.12;4.35;;;;;;;0.08;78.99;101634.14;1683292;84;21035;-74
2022/03/01 07:55:26;;;;;;;5.67;4.28;;;;;;;0.14;79.30;101626.75;1687864;83;21003;-71
2022/03/01 07:57:53;;;;;;;4.07;3.60;;;;;;;0.19;79.15;101635.20;1684850;84;21506;-73
2022/03/01 08:00:19;;;;;;;4.13;3.27;;;;;;;0.26;78.65;101625.66;1692863;84;21022;-71
2022/03/01 08:02:45;;;;;;;5.65;3.75;;;;;;;0.29;78.44;101625.48;1693832;84;21617;-74
2022/03/01 08:05:13;;;;;;;7.10;4.47;;;;;;;0.35;78.38;101625.11;1683283;84;21042;-73
2022/03/01 08:07:39;;;;;;;6.77;3.73;;;;;;;0.37;78.30;101629.80;1682792;84;21023;-73
2022/03/01 08:10:07;;;;;;;6.83;4.83;;;;;;;0.44;78.21;101629.82;1684082;84;21074;-74
2022/03/01 08:12:35;;;;;;;6.40;5.13;;;;;;;0.48;77.91;101628.70;1682404;84;21026;-74
2022/03/01 08:15:01;;;;;;;5.28;4.03;;;;;;;0.51;77.58;101632.46;1683613;84;21708;-73
2022/03/01 08:17:28;;;;;;;4.90;4.40;;;;;;;0.50;77.46;101630.76;1683574;84;21065;-73
2022/03/01 08:19:55;;;;;;;6.77;4.30;;;;;;;0.49;77.54;101629.09;1683459;84;21094;-74
2022/03/01 08:22:21;;;;;;;7.60;5.28;;;;;;;0.50;77.66;101628.14;1683391;84;21153;-75
2022/03/01 08:24:50;;;;;;;5.75;4.58;;;;;;;0.53;77.75;101626.66;1687929;84;21165;-76
2022/03/01 08:27:17;;;;;;;5.30;4.27;;;;;;;0.57;77.62;101628.16;1685277;84;21179;-75
2022/03/01 08:29:43;;;;;;;5.47;4.27;;;;;;;0.56;77.53;101628.23;1682797;84;21029;-74
2022/03/01 08:32:11;;;;;;;5.57;4.90;;;;;;;0.57;77.53;101621.59;1683478;84;21099;-74
2022/03/01 08:34:37;;;;;;;4.80;4.27;;;;;;;0.52;77.71;101625.42;1683071;84;21055;-74
2022/03/01 08:37:04;;;;;;;5.90;4.25;;;;;;;0.52;77.95;101622.33;1676131;84;21035;-75
2022/03/01 08:39:31;;;;;;;4.23;3.83;;;;;;;0.50;77.99;101629.92;1678969;84;21563;-74
2022/03/01 08:41:56;;;;;;;6.08;3.85;;;;;;;0.48;77.67;101626.55;1676403;84;21126;-74
2022/03/01 08:44:23;;;;;;;5.37;3.45;;;;;;;0.37;78.09;101617.52;1682451;84;21159;-75
2022/03/01 08:46:49;;;;;;;6.83;3.83;;;;;;;0.34;78.50;101619.48;1697685;84;21083;-75
2022/03/01 08:49:15;;;;;;;5.58;4.60;;;;;;;0.28;78.70;101615.91;1690557;83;21530;-75
2022/03/01 08:51:41;;;;;;;5.12;3.70;;;;;;;0.30;78.86;101619.28;1683500;84;21109;-73
2022/03/01 08:54:07;;;;;;;3.75;3.40;;;;;;;0.29;78.71;101625.01;1683820;85;21038;-72
2022/03/01 08:56:33;;;;;;;6.08;4.95;;;;;;;0.32;78.68;101622.66;1698147;84;20962;-74
2022/03/01 08:59:00;;;;;;;4.50;4.10;;;;;;;0.33;78.80;101618.64;1712529;83;21125;-75
2022/03/01 09:01:26;;;;;;;;;;;;;;;0.39;78.94;101623.52;1714375;82;21090;-75
2022/03/01 09:03:53;;;;;;;5.40;4.37;;;;;;;0.46;78.57;101625.32;1712260;82;20184;-73
2022/03/01 09:06:20;;;;;;;5.92;3.92;;;;;;;0.44;78.23;101632.92;1712280;82;21091;-74
2022/03/01 09:08:48;;;;;;;4.10;3.27;;;;;;;0.39;78.21;101633.17;1712122;82;21042;-74
2022/03/01 09:11:14;;;;;;;4.15;3.72;;;;;;;0.37;78.23;101619.30;1708616;82;21196;-73
2022/03/01 09:13:40;;;;;;;5.17;4.40;;;;;;;0.34;78.39;101617.72;1682210;84;21513;-75
2022/03/01 09:16:07;;;;;;;5.30;4.45;;;;;;;0.36;78.74;101624.19;1682363;84;21574;-75
2022/03/01 09:18:34;;;;;;;;;;;;;;;0.39;78.81;101617.44;1684768;84;21070;-74
2022/03/01 09:21:02;;;;;;;5.77;4.23;;;;;;;0.34;78.98;101615.09;1682488;84;20525;-75
2022/03/01 09:23:30;;;;;;;6.93;5.67;;;;;;;0.33;79.43;101617.33;1681748;84;21141;-76
2022/03/01 09:25:57;;;;;;;5.53;3.85;;;;;;;0.41;79.25;101612.10;1682152;84;21040;-75
2022/03/01 09:28:23;;;;;;;4.87;4.33;;;;;;;0.40;79.37;101607.33;1682001;85;21166;-74
2022/03/01 09:30:50;;;;;;;;;;;;;;;0.37;79.47;101608.81;1684410;85;21087;-75
2022/03/01 09:33:16;;;;;;;5.53;3.97;;;;;;;0.42;79.21;101603.31;1682000;84;20139;-74
2022/03/01 09:35:43;;;;;;;5.42;3.95;;;;;;;0.42;79.52;101608.08;1683587;84;21574;-76
2022/03/01 09:38:09;;;;;;;;;;;;;;;0.44;79.16;101601.44;1685969;84;21571;-74
2022/03/01 09:40:36;;;;;;;6.27;5.37;;;;;;;0.38;79.50;101594.30;1683568;84;20446;-74
2022/03/01 09:43:02;;;;;;;5.35;4.53;;;;;;;0.41;79.70;101591.95;1646034;86;21116;-74
2022/03/01 09:45:29;;;;;;;5.80;5.17;;;;;;;0.51;79.21;101585.23;1668685;84;21678;-75
2022/03/01 09:47:55;;;;;;;8.68;4.72;;;;;;;0.56;79.37;101585.78;1686711;84;21992;-75
2022/03/01 09:50:27;;;;;;;8.65;5.92;;;;;;;0.58;79.89;101586.56;1695857;84;21065;-75
2022/03/01 09:52:50;;;;;;;5.63;4.73;;;;;;;0.65;79.71;101586.18;1691939;84;21007;-73
2022/03/01 09:55:16;;;;;;;6.45;4.97;;;;;;;0.80;78.88;101592.27;1681733;84;21043;-74
2022/03/01 09:57:42;;;;;;;7.10;5.00;;;;;;;0.81;78.22;101585.63;1677001;84;21118;-73
2022/03/01 10:00:09;;;;;;;7.08;6.37;;;;;;;0.75;78.10;101587.29;1663901;84;22220;-76
2022/03/01 10:02:42;;;;;;;6.27;5.37;;;;;;;0.67;78.66;101579.89;1663786;84;21043;-74
2022/03/01 10:05:10;;;;;;;7.83;6.03;;;;;;;0.76;78.92;101578.49;1683490;84;21601;-74
2022/03/01 10:07:45;;;;;;;5.93;4.90;;;;;;;0.91;78.93;101580.16;1683596;85;21584;-73
2022/03/01 10:10:16;;;;;;;6.30;5.43;;;;;;;1.03;78.33;101572.47;1681006;84;21116;-74
2022/03/01 10:12:55;;;;;;;6.97;6.27;;;;;;;1.05;78.18;101572.73;1681108;84;21601;-73
2022/03/01 10:15:29;;;;;;;8.83;6.57;;;;;;;1.08;77.94;101570.40;1682486;85;21001;-74
2022/03/01 10:17:56;;;;;;;7.63;5.83;;;;;;;0.96;78.14;101576.80;1683629;85;21138;-75
2022/03/01 10:20:22;;;;;;;7.83;7.03;;;;;;;0.88;78.32;101570.32;1663186;84;21103;-75
2022/03/01 10:22:52;;;;;;;8.03;6.83;;;;;;;0.86;78.45;101570.89;1683295;85;21398;-73
2022/03/01 10:25:22;;;;;;;7.70;6.30;;;;;;;0.87;78.50;101565.55;1682289;84;21145;-73
2022/03/01 10:27:51;;;;;;;9.10;5.67;;;;;;;0.87;78.61;101556.84;1683117;84;21048;-74
2022/03/01 10:30:34;;;;;;;9.63;6.57;;;;;;;0.93;78.78;101552.51;1682242;84;20990;-75
2022/03/01 10:33:12;;;;;;;10.97;7.47;;;;;;;1.04;78.66;101548.73;1679047;84;21042;-73
2022/03/01 10:35:42;;;;;;;11.00;7.80;;;;;;;1.18;78.58;101548.33;1669810;84;21108;-74
2022/03/01 10:39:27;;;;;;;9.67;6.73;;;;;;;1.43;77.53;101544.97;1801664;78;23521;-76
2022/03/01 10:41:54;;;;;;;;;;;;;;;1.41;77.36;101542.91;1766264;80;21548;-77
2022/03/01 10:44:27;;;;;;;8.70;7.00;;;;;;;1.42;77.52;101537.56;1761533;80;20162;-74
2022/03/01 10:47:01;;;;;;;7.63;6.37;;;;;;;1.46;77.13;101539.52;1713499;83;21066;-76
2022/03/01 10:49:32;;;;;;;7.03;6.33;;;;;;;1.48;77.29;101535.01;1706063;82;20991;-75
2022/03/01 10:52:06;;;;;;;7.27;6.50;;;;;;;1.50;76.21;101531.80;1707079;83;21531;-75
2022/03/01 10:54:42;;;;;;;9.80;7.23;;;;;;;1.44;76.78;101525.16;1706730;82;21493;-74
2022/03/01 10:57:22;;;;;;;6.60;5.87;;;;;;;1.41;76.92;101529.77;1707594;82;21074;-74
2022/03/01 10:59:50;;;;;;;7.10;6.40;;;;;;;1.46;76.33;101526.38;1706520;83;21471;-75
2022/03/01 11:02:17;;;;;;;8.03;6.90;;;;;;;1.44;76.19;101524.33;1707100;83;21117;-76
2022/03/01 11:04:45;;;;;;;9.23;7.23;;;;;;;1.34;76.73;101519.67;1723215;82;21485;-75
2022/03/01 11:07:13;;;;;;;9.07;6.57;;;;;;;1.29;77.48;101522.22;1705284;83;21104;-74
2022/03/01 11:09:40;;;;;;;8.90;6.67;;;;;;;1.31;77.08;101526.42;1704635;82;21661;-74
2022/03/01 11:12:09;;;;;;;8.30;7.37;;;;;;;1.30;76.92;101515.56;1719436;81;21031;-75
2022/03/01 11:14:58;;;;;;;8.90;7.17;;;;;;;1.31;76.94;101521.66;1736338;81;21096;-74
2022/03/01 11:17:48;;;;;;;7.53;6.20;;;;;;;1.38;77.25;101516.86;1735937;81;21499;-76
2022/03/01 11:20:22;;;;;;;9.63;7.43;;;;;;;1.48;77.22;101525.33;1734735;81;21010;-74
2022/03/01 11:23:08;;;;;;;10.43;7.10;;;;;;;1.58;76.86;101521.63;1726224;81;21049;-74
2022/03/01 11:25:47;;;;;;;10.33;7.20;;;;;;;1.66;76.41;101523.30;1718074;82;21064;-76
2022/03/01 11:28:12;;;;;;;;;;;;;;;1.71;76.58;101522.97;1715502;83;21026;-74
2022/03/01 11:30:51;;;;;;;9.73;8.00;;;;;;;1.78;76.52;101520.80;1717710;83;20126;-75
2022/03/01 11:33:36;;;;;;;9.23;6.57;;;;;;;1.80;76.29;101522.36;1712774;83;21545;-76